sensor_id;sensor_type;location;lat;lon;timestamp;P1;durP1;ratioP1;P2;durP2;ratioP2
32333;SDS011;18810;53.040;8.850;2024-02-28T00:02:22;0.30;;;0.30;;
32333;SDS011;18810;53.040;8.850;2024-02-28T00:04:48;0.30;;;0.30;;
32333;SDS011;18810;53.040;8.850;2024-02-28T00:07:14;0.30;;;0.30;;
32333;SDS011;18810;53.040;8.850;2024-02-28T00:09:40;0.30;;;0.30;;
32333;SDS011;18810;53.040;8.850;2024-02-28T00:12:06;0.30;;;0.30;;
32333;SDS011;18810;53.040;8.850;2024-02-28T00:14:32;0.40;;;0.40;;
32333;SDS011;18810;53.040;8.850;2024-02-28T00:16:58;0.40;;;0.40;;
32333;SDS011;18810;53.040;8.850;2024-02-28T00:19:24;0.30;;;0.30;;
32333;SDS011;18810;53.040;8.850;2024-02-28T00:21:50;0.30;;;0.30;;
32333;SDS011;18810;53.040;8.850;2024-02-28T00:24:17;0.30;;;0.30;;
32333;SDS011;18810;53.040;8.850;2024-02-28T00:26:43;0.30;;;0.30;;
32333;SDS011;18810;53.040;8.850;2024-02-28T00:29:12;0.30;;;0.30;;
32333;SDS011;18810;53.040;8.850;2024-02-28T00:31:37;0.30;;;0.30;;
32333;SDS011;18810;53.040;8.850;2024-02-28T00:34:03;0.30;;;0.30;;
32333;SDS011;18810;53.040;8.850;2024-02-28T00:36:29;0.40;;;0.40;;
32333;SDS011;18810;53.040;8.850;2024-02-28T00:38:55;0.40;;;0.40;;
32333;SDS011;18810;53.040;8.850;2024-02-28T00:41:21;0.30;;;0.30;;
32333;SDS011;18810;53.040;8.850;2024-02-28T00:43:47;0.30;;;0.30;;
32333;SDS011;18810;53.040;8.850;2024-02-28T00:46:13;0.30;;;0.30;;
32333;SDS011;18810;53.040;8.850;2024-02-28T00:48:39;0.30;;;0.30;;
32333;SDS011;18810;53.040;8.850;2024-02-28T00:51:05;0.40;;;0.40;;
32333;SDS011;18810;53.040;8.850;2024-02-28T00:53:32;0.30;;;0.30;;
32333;SDS011;18810;53.040;8.850;2024-02-28T00:55:58;0.32;;;0.32;;
32333;SDS011;18810;53.040;8.850;2024-02-28T00:58:24;0.40;;;0.40;;
32333;SDS011;18810;53.040;8.850;2024-02-28T01:00:52;0.40;;;0.40;;
32333;SDS011;18810;53.040;8.850;2024-02-28T01:03:18;0.40;;;0.40;;
32333;SDS011;18810;53.040;8.850;2024-02-28T01:05:45;0.30;;;0.30;;
32333;SDS011;18810;53.040;8.850;2024-02-28T01:08:10;0.40;;;0.40;;
32333;SDS011;18810;53.040;8.850;2024-02-28T01:10:36;0.30;;;0.30;;
32333;SDS011;18810;53.040;8.850;2024-02-28T01:13:03;0.30;;;0.30;;
32333;SDS011;18810;53.040;8.850;2024-02-28T01:15:30;0.40;;;0.40;;
32333;SDS011;18810;53.040;8.850;2024-02-28T01:17:56;0.40;;;0.40;;
32333;SDS011;18810;53.040;8.850;2024-02-28T01:20:22;0.30;;;0.30;;
32333;SDS011;18810;53.040;8.850;2024-02-28T01:22:48;0.30;;;0.30;;
32333;SDS011;18810;53.040;8.850;2024-02-28T01:25:14;0.40;;;0.40;;
32333;SDS011;18810;53.040;8.850;2024-02-28T01:27:40;0.40;;;0.40;;
32333;SDS011;18810;53.040;8.850;2024-02-28T01:30:06;0.30;;;0.30;;
32333;SDS011;18810;53.040;8.850;2024-02-28T01:32:32;0.40;;;0.40;;
32333;SDS011;18810;53.040;8.850;2024-02-28T01:34:58;0.40;;;0.40;;
32333;SDS011;18810;53.040;8.850;2024-02-28T01:37:24;0.40;;;0.40;;
32333;SDS011;18810;53.040;8.850;2024-02-28T01:39:50;0.40;;;0.40;;
32333;SDS011;18810;53.040;8.850;2024-02-28T01:42:16;0.30;;;0.30;;
32333;SDS011;18810;53.040;8.850;2024-02-28T01:44:47;0.30;;;0.30;;
32333;SDS011;18810;53.040;8.850;2024-02-28T01:47:16;0.40;;;0.40;;
32333;SDS011;18810;53.040;8.850;2024-02-28T01:49:42;0.40;;;0.40;;
32333;SDS011;18810;53.040;8.850;2024-02-28T01:52:11;0.40;;;0.40;;
32333;SDS011;18810;53.040;8.850;2024-02-28T01:54:37;0.40;;;0.40;;
32333;SDS011;18810;53.040;8.850;2024-02-28T01:57:04;0.40;;;0.40;;
32333;SDS011;18810;53.040;8.850;2024-02-28T01:59:31;0.40;;;0.40;;
32333;SDS011;18810;53.040;8.850;2024-02-28T02:01:58;0.40;;;0.40;;
32333;SDS011;18810;53.040;8.850;2024-02-28T02:04:24;0.40;;;0.40;;
32333;SDS011;18810;53.040;8.850;2024-02-28T02:06:51;0.40;;;0.40;;
32333;SDS011;18810;53.040;8.850;2024-02-28T02:09:19;0.40;;;0.40;;
32333;SDS011;18810;53.040;8.850;2024-02-28T02:11:45;0.40;;;0.40;;
32333;SDS011;18810;53.040;8.850;2024-02-28T02:14:11;0.40;;;0.40;;
32333;SDS011;18810;53.040;8.850;2024-02-28T02:16:37;0.40;;;0.40;;
32333;SDS011;18810;53.040;8.850;2024-02-28T02:19:03;0.40;;;0.40;;
32333;SDS011;18810;53.040;8.850;2024-02-28T02:21:34;0.40;;;0.40;;
32333;SDS011;18810;53.040;8.850;2024-02-28T02:24:06;0.30;;;0.30;;
32333;SDS011;18810;53.040;8.850;2024-02-28T02:26:32;0.30;;;0.30;;
32333;SDS011;18810;53.040;8.850;2024-02-28T02:28:58;0.40;;;0.40;;
32333;SDS011;18810;53.040;8.850;2024-02-28T02:31:24;0.40;;;0.40;;
32333;SDS011;18810;53.040;8.850;2024-02-28T02:33:50;0.40;;;0.40;;
32333;SDS011;18810;53.040;8.850;2024-02-28T02:36:16;0.40;;;0.40;;
32333;SDS011;18810;53.040;8.850;2024-02-28T02:38:42;0.40;;;0.40;;
32333;SDS011;18810;53.040;8.850;2024-02-28T02:41:08;0.40;;;0.40;;
32333;SDS011;18810;53.040;8.850;2024-02-28T02:43:34;0.40;;;0.40;;
32333;SDS011;18810;53.040;8.850;2024-02-28T02:45:59;0.40;;;0.40;;
32333;SDS011;18810;53.040;8.850;2024-02-28T02:48:26;0.40;;;0.40;;
32333;SDS011;18810;53.040;8.850;2024-02-28T02:50:52;0.40;;;0.40;;
32333;SDS011;18810;53.040;8.850;2024-02-28T02:53:18;0.40;;;0.40;;
32333;SDS011;18810;53.040;8.850;2024-02-28T02:55:44;0.40;;;0.40;;
32333;SDS011;18810;53.040;8.850;2024-02-28T02:58:10;0.40;;;0.40;;
32333;SDS011;18810;53.040;8.850;2024-02-28T03:00:36;0.40;;;0.40;;
32333;SDS011;18810;53.040;8.850;2024-02-28T03:03:02;0.30;;;0.30;;
32333;SDS011;18810;53.040;8.850;2024-02-28T03:05:28;0.30;;;0.30;;
32333;SDS011;18810;53.040;8.850;2024-02-28T03:07:54;0.35;;;0.35;;
32333;SDS011;18810;53.040;8.850;2024-02-28T03:10:20;0.40;;;0.40;;
32333;SDS011;18810;53.040;8.850;2024-02-28T03:12:46;0.30;;;0.30;;
32333;SDS011;18810;53.040;8.850;2024-02-28T03:15:12;0.40;;;0.40;;
32333;SDS011;18810;53.040;8.850;2024-02-28T03:17:38;0.40;;;0.40;;
32333;SDS011;18810;53.040;8.850;2024-02-28T03:20:04;0.40;;;0.40;;
32333;SDS011;18810;53.040;8.850;2024-02-28T03:22:32;0.40;;;0.40;;
32333;SDS011;18810;53.040;8.850;2024-02-28T03:24:58;0.30;;;0.30;;
32333;SDS011;18810;53.040;8.850;2024-02-28T03:27:24;0.40;;;0.40;;
32333;SDS011;18810;53.040;8.850;2024-02-28T03:29:51;0.32;;;0.32;;
32333;SDS011;18810;53.040;8.850;2024-02-28T03:32:16;0.40;;;0.40;;
32333;SDS011;18810;53.040;8.850;2024-02-28T03:34:42;0.30;;;0.30;;
32333;SDS011;18810;53.040;8.850;2024-02-28T03:37:08;0.40;;;0.40;;
32333;SDS011;18810;53.040;8.850;2024-02-28T03:39:34;0.30;;;0.30;;
32333;SDS011;18810;53.040;8.850;2024-02-28T03:42:00;0.30;;;0.30;;
32333;SDS011;18810;53.040;8.850;2024-02-28T03:44:27;0.30;;;0.30;;
32333;SDS011;18810;53.040;8.850;2024-02-28T03:46:53;0.40;;;0.40;;
32333;SDS011;18810;53.040;8.850;2024-02-28T03:49:19;0.30;;;0.30;;
32333;SDS011;18810;53.040;8.850;2024-02-28T03:51:45;0.30;;;0.30;;
32333;SDS011;18810;53.040;8.850;2024-02-28T03:54:11;0.40;;;0.40;;
32333;SDS011;18810;53.040;8.850;2024-02-28T03:56:37;0.30;;;0.30;;
32333;SDS011;18810;53.040;8.850;2024-02-28T03:59:03;0.30;;;0.30;;
32333;SDS011;18810;53.040;8.850;2024-02-28T04:01:29;0.30;;;0.30;;
32333;SDS011;18810;53.040;8.850;2024-02-28T04:03:55;0.30;;;0.30;;
32333;SDS011;18810;53.040;8.850;2024-02-28T04:06:21;0.40;;;0.40;;
32333;SDS011;18810;53.040;8.850;2024-02-28T04:08:47;0.30;;;0.30;;
32333;SDS011;18810;53.040;8.850;2024-02-28T04:11:14;0.40;;;0.40;;
32333;SDS011;18810;53.040;8.850;2024-02-28T04:13:40;0.40;;;0.40;;
32333;SDS011;18810;53.040;8.850;2024-02-28T04:16:07;0.40;;;0.40;;
32333;SDS011;18810;53.040;8.850;2024-02-28T04:18:33;0.30;;;0.30;;
32333;SDS011;18810;53.040;8.850;2024-02-28T04:20:59;0.40;;;0.40;;
32333;SDS011;18810;53.040;8.850;2024-02-28T04:23:25;0.40;;;0.40;;
32333;SDS011;18810;53.040;8.850;2024-02-28T04:25:51;0.30;;;0.30;;
32333;SDS011;18810;53.040;8.850;2024-02-28T04:28:17;0.40;;;0.40;;
32333;SDS011;18810;53.040;8.850;2024-02-28T04:30:43;0.40;;;0.40;;
32333;SDS011;18810;53.040;8.850;2024-02-28T04:33:09;0.40;;;0.40;;
32333;SDS011;18810;53.040;8.850;2024-02-28T04:35:35;0.40;;;0.40;;
32333;SDS011;18810;53.040;8.850;2024-02-28T04:38:01;0.40;;;0.40;;
32333;SDS011;18810;53.040;8.850;2024-02-28T04:40:27;0.40;;;0.40;;
32333;SDS011;18810;53.040;8.850;2024-02-28T04:42:53;0.30;;;0.30;;
32333;SDS011;18810;53.040;8.850;2024-02-28T04:45:19;0.40;;;0.40;;
32333;SDS011;18810;53.040;8.850;2024-02-28T04:47:45;0.40;;;0.40;;
32333;SDS011;18810;53.040;8.850;2024-02-28T04:50:11;0.40;;;0.40;;
32333;SDS011;18810;53.040;8.850;2024-02-28T04:52:37;0.40;;;0.40;;
32333;SDS011;18810;53.040;8.850;2024-02-28T04:55:03;0.30;;;0.30;;
32333;SDS011;18810;53.040;8.850;2024-02-28T04:57:29;0.40;;;0.40;;
32333;SDS011;18810;53.040;8.850;2024-02-28T04:59:55;0.32;;;0.32;;
32333;SDS011;18810;53.040;8.850;2024-02-28T05:02:21;0.30;;;0.30;;
32333;SDS011;18810;53.040;8.850;2024-02-28T05:04:47;0.40;;;0.40;;
32333;SDS011;18810;53.040;8.850;2024-02-28T05:07:13;0.40;;;0.40;;
32333;SDS011;18810;53.040;8.850;2024-02-28T05:09:39;0.38;;;0.38;;
32333;SDS011;18810;53.040;8.850;2024-02-28T05:12:05;0.35;;;0.35;;
32333;SDS011;18810;53.040;8.850;2024-02-28T05:14:31;0.40;;;0.40;;
32333;SDS011;18810;53.040;8.850;2024-02-28T05:16:57;0.40;;;0.40;;
32333;SDS011;18810;53.040;8.850;2024-02-28T05:19:23;0.40;;;0.40;;
32333;SDS011;18810;53.040;8.850;2024-02-28T05:21:49;0.40;;;0.40;;
32333;SDS011;18810;53.040;8.850;2024-02-28T05:24:15;0.40;;;0.40;;
32333;SDS011;18810;53.040;8.850;2024-02-28T05:26:41;0.40;;;0.40;;
32333;SDS011;18810;53.040;8.850;2024-02-28T05:29:07;0.30;;;0.30;;
32333;SDS011;18810;53.040;8.850;2024-02-28T05:31:33;0.30;;;0.30;;
32333;SDS011;18810;53.040;8.850;2024-02-28T05:33:59;0.40;;;0.40;;
32333;SDS011;18810;53.040;8.850;2024-02-28T05:36:27;0.40;;;0.40;;
32333;SDS011;18810;53.040;8.850;2024-02-28T05:38:57;0.40;;;0.40;;
32333;SDS011;18810;53.040;8.850;2024-02-28T05:41:24;0.40;;;0.40;;
32333;SDS011;18810;53.040;8.850;2024-02-28T05:43:51;0.30;;;0.30;;
32333;SDS011;18810;53.040;8.850;2024-02-28T05:46:17;0.43;;;0.43;;
32333;SDS011;18810;53.040;8.850;2024-02-28T05:48:44;0.40;;;0.40;;
32333;SDS011;18810;53.040;8.850;2024-02-28T05:51:10;0.40;;;0.40;;
32333;SDS011;18810;53.040;8.850;2024-02-28T05:53:38;0.40;;;0.40;;
32333;SDS011;18810;53.040;8.850;2024-02-28T05:56:05;0.40;;;0.40;;
32333;SDS011;18810;53.040;8.850;2024-02-28T05:58:38;0.40;;;0.40;;
32333;SDS011;18810;53.040;8.850;2024-02-28T06:01:04;0.65;;;0.65;;
32333;SDS011;18810;53.040;8.850;2024-02-28T06:03:32;0.55;;;0.55;;
32333;SDS011;18810;53.040;8.850;2024-02-28T06:05:58;0.50;;;0.50;;
32333;SDS011;18810;53.040;8.850;2024-02-28T06:08:24;0.60;;;0.60;;
32333;SDS011;18810;53.040;8.850;2024-02-28T06:10:50;0.40;;;0.40;;
32333;SDS011;18810;53.040;8.850;2024-02-28T06:13:17;0.50;;;0.50;;
32333;SDS011;18810;53.040;8.850;2024-02-28T06:15:43;0.40;;;0.40;;
32333;SDS011;18810;53.040;8.850;2024-02-28T06:18:09;0.40;;;0.40;;
32333;SDS011;18810;53.040;8.850;2024-02-28T06:20:35;0.50;;;0.50;;
32333;SDS011;18810;53.040;8.850;2024-02-28T06:23:02;0.40;;;0.40;;
32333;SDS011;18810;53.040;8.850;2024-02-28T06:25:27;0.40;;;0.40;;
32333;SDS011;18810;53.040;8.850;2024-02-28T06:27:53;0.40;;;0.40;;
32333;SDS011;18810;53.040;8.850;2024-02-28T06:30:19;0.40;;;0.40;;
32333;SDS011;18810;53.040;8.850;2024-02-28T06:32:45;0.40;;;0.40;;
32333;SDS011;18810;53.040;8.850;2024-02-28T06:35:10;0.40;;;0.40;;
32333;SDS011;18810;53.040;8.850;2024-02-28T06:37:36;0.50;;;0.50;;
32333;SDS011;18810;53.040;8.850;2024-02-28T06:40:03;0.43;;;0.43;;
32333;SDS011;18810;53.040;8.850;2024-02-28T06:42:35;0.40;;;0.40;;
32333;SDS011;18810;53.040;8.850;2024-02-28T06:45:02;0.40;;;0.40;;
32333;SDS011;18810;53.040;8.850;2024-02-28T06:47:29;0.40;;;0.40;;
32333;SDS011;18810;53.040;8.850;2024-02-28T06:49:55;0.40;;;0.40;;
32333;SDS011;18810;53.040;8.850;2024-02-28T06:52:21;0.50;;;0.50;;
32333;SDS011;18810;53.040;8.850;2024-02-28T06:54:47;0.40;;;0.40;;
32333;SDS011;18810;53.040;8.850;2024-02-28T06:57:13;0.40;;;0.40;;
32333;SDS011;18810;53.040;8.850;2024-02-28T06:59:39;0.40;;;0.40;;
32333;SDS011;18810;53.040;8.850;2024-02-28T07:02:05;0.40;;;0.40;;
32333;SDS011;18810;53.040;8.850;2024-02-28T07:04:31;0.40;;;0.40;;
32333;SDS011;18810;53.040;8.850;2024-02-28T07:06:57;0.40;;;0.40;;
32333;SDS011;18810;53.040;8.850;2024-02-28T07:09:23;0.32;;;0.32;;
32333;SDS011;18810;53.040;8.850;2024-02-28T07:11:54;0.50;;;0.50;;
32333;SDS011;18810;53.040;8.850;2024-02-28T07:14:20;0.40;;;0.40;;
32333;SDS011;18810;53.040;8.850;2024-02-28T07:16:46;0.40;;;0.40;;
32333;SDS011;18810;53.040;8.850;2024-02-28T07:19:11;0.40;;;0.40;;
32333;SDS011;18810;53.040;8.850;2024-02-28T07:21:37;0.40;;;0.40;;
32333;SDS011;18810;53.040;8.850;2024-02-28T07:24:04;0.40;;;0.40;;
32333;SDS011;18810;53.040;8.850;2024-02-28T07:26:31;0.40;;;0.40;;
32333;SDS011;18810;53.040;8.850;2024-02-28T07:28:57;0.40;;;0.40;;
32333;SDS011;18810;53.040;8.850;2024-02-28T07:31:23;0.40;;;0.40;;
32333;SDS011;18810;53.040;8.850;2024-02-28T07:33:49;0.40;;;0.40;;
32333;SDS011;18810;53.040;8.850;2024-02-28T07:36:16;0.35;;;0.35;;
32333;SDS011;18810;53.040;8.850;2024-02-28T07:38:42;0.30;;;0.30;;
32333;SDS011;18810;53.040;8.850;2024-02-28T07:41:08;0.40;;;0.40;;
32333;SDS011;18810;53.040;8.850;2024-02-28T07:43:34;0.40;;;0.40;;
32333;SDS011;18810;53.040;8.850;2024-02-28T07:46:06;0.40;;;0.40;;
32333;SDS011;18810;53.040;8.850;2024-02-28T07:48:33;0.40;;;0.40;;
32333;SDS011;18810;53.040;8.850;2024-02-28T07:50:59;0.40;;;0.40;;
32333;SDS011;18810;53.040;8.850;2024-02-28T07:53:26;0.30;;;0.30;;
32333;SDS011;18810;53.040;8.850;2024-02-28T07:55:52;0.30;;;0.30;;
32333;SDS011;18810;53.040;8.850;2024-02-28T07:58:18;0.40;;;0.40;;
32333;SDS011;18810;53.040;8.850;2024-02-28T08:00:44;0.40;;;0.40;;
32333;SDS011;18810;53.040;8.850;2024-02-28T08:03:10;0.38;;;0.38;;
32333;SDS011;18810;53.040;8.850;2024-02-28T08:05:36;0.30;;;0.30;;
32333;SDS011;18810;53.040;8.850;2024-02-28T08:08:07;0.30;;;0.30;;
32333;SDS011;18810;53.040;8.850;2024-02-28T08:10:33;0.30;;;0.30;;
32333;SDS011;18810;53.040;8.850;2024-02-28T08:13:00;0.30;;;0.30;;
32333;SDS011;18810;53.040;8.850;2024-02-28T08:15:26;0.30;;;0.30;;
32333;SDS011;18810;53.040;8.850;2024-02-28T08:17:52;0.40;;;0.40;;
32333;SDS011;18810;53.040;8.850;2024-02-28T08:20:19;0.30;;;0.30;;
32333;SDS011;18810;53.040;8.850;2024-02-28T08:22:45;0.40;;;0.40;;
32333;SDS011;18810;53.040;8.850;2024-02-28T08:25:11;0.30;;;0.30;;
32333;SDS011;18810;53.040;8.850;2024-02-28T08:27:37;0.30;;;0.30;;
32333;SDS011;18810;53.040;8.850;2024-02-28T08:30:03;0.30;;;0.30;;
32333;SDS011;18810;53.040;8.850;2024-02-28T08:32:31;0.40;;;0.40;;
32333;SDS011;18810;53.040;8.850;2024-02-28T08:34:57;0.30;;;0.30;;
32333;SDS011;18810;53.040;8.850;2024-02-28T08:37:23;0.30;;;0.30;;
32333;SDS011;18810;53.040;8.850;2024-02-28T08:39:49;0.30;;;0.30;;
32333;SDS011;18810;53.040;8.850;2024-02-28T08:42:15;0.30;;;0.30;;
32333;SDS011;18810;53.040;8.850;2024-02-28T08:44:41;0.30;;;0.30;;
32333;SDS011;18810;53.040;8.850;2024-02-28T08:47:07;0.30;;;0.30;;
32333;SDS011;18810;53.040;8.850;2024-02-28T08:49:34;0.30;;;0.30;;
32333;SDS011;18810;53.040;8.850;2024-02-28T08:52:01;0.30;;;0.30;;
32333;SDS011;18810;53.040;8.850;2024-02-28T08:54:28;0.30;;;0.30;;
32333;SDS011;18810;53.040;8.850;2024-02-28T08:56:54;0.30;;;0.30;;
32333;SDS011;18810;53.040;8.850;2024-02-28T08:59:20;0.30;;;0.30;;
32333;SDS011;18810;53.040;8.850;2024-02-28T09:01:47;0.30;;;0.30;;
32333;SDS011;18810;53.040;8.850;2024-02-28T09:04:13;0.30;;;0.30;;
32333;SDS011;18810;53.040;8.850;2024-02-28T09:06:39;0.30;;;0.30;;
32333;SDS011;18810;53.040;8.850;2024-02-28T09:09:05;0.30;;;0.30;;
32333;SDS011;18810;53.040;8.850;2024-02-28T09:11:31;0.30;;;0.30;;
32333;SDS011;18810;53.040;8.850;2024-02-28T09:13:57;0.30;;;0.30;;
32333;SDS011;18810;53.040;8.850;2024-02-28T09:16:23;0.38;;;0.38;;
32333;SDS011;18810;53.040;8.850;2024-02-28T09:18:49;0.30;;;0.30;;
32333;SDS011;18810;53.040;8.850;2024-02-28T09:21:14;0.30;;;0.30;;
32333;SDS011;18810;53.040;8.850;2024-02-28T09:23:41;0.30;;;0.30;;
32333;SDS011;18810;53.040;8.850;2024-02-28T09:26:06;0.30;;;0.30;;
32333;SDS011;18810;53.040;8.850;2024-02-28T09:28:32;0.30;;;0.30;;
32333;SDS011;18810;53.040;8.850;2024-02-28T09:30:59;0.30;;;0.30;;
32333;SDS011;18810;53.040;8.850;2024-02-28T09:33:25;0.30;;;0.30;;
32333;SDS011;18810;53.040;8.850;2024-02-28T09:35:50;0.30;;;0.30;;
32333;SDS011;18810;53.040;8.850;2024-02-28T09:38:16;0.30;;;0.30;;
32333;SDS011;18810;53.040;8.850;2024-02-28T09:40:45;0.30;;;0.30;;
32333;SDS011;18810;53.040;8.850;2024-02-28T09:43:32;0.30;;;0.30;;
32333;SDS011;18810;53.040;8.850;2024-02-28T09:46:10;0.30;;;0.30;;
32333;SDS011;18810;53.040;8.850;2024-02-28T09:48:40;0.30;;;0.30;;
32333;SDS011;18810;53.040;8.850;2024-02-28T09:51:06;0.30;;;0.30;;
32333;SDS011;18810;53.040;8.850;2024-02-28T09:53:35;0.20;;;0.20;;
32333;SDS011;18810;53.040;8.850;2024-02-28T09:56:02;0.30;;;0.30;;
32333;SDS011;18810;53.040;8.850;2024-02-28T09:58:28;0.30;;;0.30;;
32333;SDS011;18810;53.040;8.850;2024-02-28T10:00:56;0.30;;;0.30;;
32333;SDS011;18810;53.040;8.850;2024-02-28T10:03:25;0.30;;;0.30;;
32333;SDS011;18810;53.040;8.850;2024-02-28T10:05:52;0.30;;;0.30;;
32333;SDS011;18810;53.040;8.850;2024-02-28T10:08:18;0.30;;;0.30;;
32333;SDS011;18810;53.040;8.850;2024-02-28T10:10:44;0.20;;;0.20;;
32333;SDS011;18810;53.040;8.850;2024-02-28T10:13:17;0.30;;;0.30;;
32333;SDS011;18810;53.040;8.850;2024-02-28T10:15:43;0.30;;;0.30;;
32333;SDS011;18810;53.040;8.850;2024-02-28T10:18:09;0.30;;;0.30;;
32333;SDS011;18810;53.040;8.850;2024-02-28T10:20:35;0.30;;;0.30;;
32333;SDS011;18810;53.040;8.850;2024-02-28T10:23:04;0.30;;;0.30;;
32333;SDS011;18810;53.040;8.850;2024-02-28T10:25:31;0.30;;;0.30;;
32333;SDS011;18810;53.040;8.850;2024-02-28T10:28:01;0.30;;;0.30;;
32333;SDS011;18810;53.040;8.850;2024-02-28T10:30:27;0.30;;;0.30;;
32333;SDS011;18810;53.040;8.850;2024-02-28T10:32:53;0.30;;;0.30;;
32333;SDS011;18810;53.040;8.850;2024-02-28T10:35:18;0.30;;;0.30;;
32333;SDS011;18810;53.040;8.850;2024-02-28T10:37:45;0.30;;;0.30;;
32333;SDS011;18810;53.040;8.850;2024-02-28T10:40:12;0.30;;;0.30;;
32333;SDS011;18810;53.040;8.850;2024-02-28T10:42:39;0.20;;;0.20;;
32333;SDS011;18810;53.040;8.850;2024-02-28T10:45:07;0.30;;;0.30;;
32333;SDS011;18810;53.040;8.850;2024-02-28T10:47:37;0.30;;;0.30;;
32333;SDS011;18810;53.040;8.850;2024-02-28T10:50:06;0.38;;;0.38;;
32333;SDS011;18810;53.040;8.850;2024-02-28T10:52:38;0.30;;;0.30;;
32333;SDS011;18810;53.040;8.850;2024-02-28T10:55:08;0.30;;;0.30;;
32333;SDS011;18810;53.040;8.850;2024-02-28T10:57:35;0.30;;;0.30;;
32333;SDS011;18810;53.040;8.850;2024-02-28T11:00:01;0.30;;;0.30;;
32333;SDS011;18810;53.040;8.850;2024-02-28T11:02:30;0.38;;;0.38;;
32333;SDS011;18810;53.040;8.850;2024-02-28T11:04:57;0.30;;;0.30;;
32333;SDS011;18810;53.040;8.850;2024-02-28T11:07:26;0.30;;;0.30;;
32333;SDS011;18810;53.040;8.850;2024-02-28T11:09:55;0.30;;;0.30;;
32333;SDS011;18810;53.040;8.850;2024-02-28T11:12:24;0.30;;;0.30;;
32333;SDS011;18810;53.040;8.850;2024-02-28T11:15:00;0.30;;;0.30;;
32333;SDS011;18810;53.040;8.850;2024-02-28T11:17:28;0.30;;;0.30;;
32333;SDS011;18810;53.040;8.850;2024-02-28T11:19:55;0.30;;;0.30;;
32333;SDS011;18810;53.040;8.850;2024-02-28T11:22:21;0.20;;;0.20;;
32333;SDS011;18810;53.040;8.850;2024-02-28T11:24:47;0.20;;;0.20;;
32333;SDS011;18810;53.040;8.850;2024-02-28T11:27:14;0.30;;;0.30;;
32333;SDS011;18810;53.040;8.850;2024-02-28T11:29:41;0.20;;;0.20;;
32333;SDS011;18810;53.040;8.850;2024-02-28T11:32:07;0.20;;;0.20;;
32333;SDS011;18810;53.040;8.850;2024-02-28T11:34:34;0.30;;;0.30;;
32333;SDS011;18810;53.040;8.850;2024-02-28T11:37:00;0.30;;;0.30;;
32333;SDS011;18810;53.040;8.850;2024-02-28T11:39:26;0.30;;;0.30;;
32333;SDS011;18810;53.040;8.850;2024-02-28T11:41:51;0.30;;;0.30;;
32333;SDS011;18810;53.040;8.850;2024-02-28T11:44:18;0.30;;;0.30;;
32333;SDS011;18810;53.040;8.850;2024-02-28T11:46:47;0.30;;;0.30;;
32333;SDS011;18810;53.040;8.850;2024-02-28T11:49:14;0.30;;;0.30;;
32333;SDS011;18810;53.040;8.850;2024-02-28T11:51:41;0.30;;;0.30;;
32333;SDS011;18810;53.040;8.850;2024-02-28T11:54:09;0.30;;;0.30;;
32333;SDS011;18810;53.040;8.850;2024-02-28T11:56:36;0.30;;;0.30;;
32333;SDS011;18810;53.040;8.850;2024-02-28T11:59:03;0.30;;;0.30;;
32333;SDS011;18810;53.040;8.850;2024-02-28T12:04:02;0.30;;;0.30;;
32333;SDS011;18810;53.040;8.850;2024-02-28T12:06:35;0.20;;;0.20;;
32333;SDS011;18810;53.040;8.850;2024-02-28T12:09:35;0.30;;;0.30;;
32333;SDS011;18810;53.040;8.850;2024-02-28T12:11:55;0.30;;;0.30;;
32333;SDS011;18810;53.040;8.850;2024-02-28T12:14:21;0.20;;;0.20;;
32333;SDS011;18810;53.040;8.850;2024-02-28T12:16:47;0.30;;;0.30;;
32333;SDS011;18810;53.040;8.850;2024-02-28T12:19:13;0.30;;;0.30;;
32333;SDS011;18810;53.040;8.850;2024-02-28T12:21:41;0.30;;;0.30;;
32333;SDS011;18810;53.040;8.850;2024-02-28T12:24:08;0.30;;;0.30;;
32333;SDS011;18810;53.040;8.850;2024-02-28T12:26:34;0.30;;;0.30;;
32333;SDS011;18810;53.040;8.850;2024-02-28T12:29:00;0.30;;;0.30;;
32333;SDS011;18810;53.040;8.850;2024-02-28T12:31:26;0.30;;;0.30;;
32333;SDS011;18810;53.040;8.850;2024-02-28T12:33:52;0.30;;;0.30;;
32333;SDS011;18810;53.040;8.850;2024-02-28T12:36:21;0.30;;;0.30;;
32333;SDS011;18810;53.040;8.850;2024-02-28T12:38:47;0.30;;;0.30;;
32333;SDS011;18810;53.040;8.850;2024-02-28T12:41:14;0.20;;;0.20;;
32333;SDS011;18810;53.040;8.850;2024-02-28T12:43:40;0.30;;;0.30;;
32333;SDS011;18810;53.040;8.850;2024-02-28T12:46:06;0.22;;;0.22;;
32333;SDS011;18810;53.040;8.850;2024-02-28T12:48:39;0.30;;;0.30;;
32333;SDS011;18810;53.040;8.850;2024-02-28T12:51:06;0.30;;;0.30;;
32333;SDS011;18810;53.040;8.850;2024-02-28T12:53:33;0.20;;;0.20;;
32333;SDS011;18810;53.040;8.850;2024-02-28T12:55:59;0.30;;;0.30;;
32333;SDS011;18810;53.040;8.850;2024-02-28T12:58:25;0.30;;;0.30;;
32333;SDS011;18810;53.040;8.850;2024-02-28T13:00:51;0.20;;;0.20;;
32333;SDS011;18810;53.040;8.850;2024-02-28T13:03:17;0.30;;;0.30;;
32333;SDS011;18810;53.040;8.850;2024-02-28T13:05:43;0.30;;;0.30;;
32333;SDS011;18810;53.040;8.850;2024-02-28T13:08:09;0.30;;;0.30;;
32333;SDS011;18810;53.040;8.850;2024-02-28T13:10:35;0.20;;;0.20;;
32333;SDS011;18810;53.040;8.850;2024-02-28T13:13:04;0.20;;;0.20;;
32333;SDS011;18810;53.040;8.850;2024-02-28T13:15:31;0.30;;;0.30;;
32333;SDS011;18810;53.040;8.850;2024-02-28T13:17:57;0.20;;;0.20;;
32333;SDS011;18810;53.040;8.850;2024-02-28T13:20:23;0.20;;;0.20;;
32333;SDS011;18810;53.040;8.850;2024-02-28T13:22:50;0.20;;;0.20;;
32333;SDS011;18810;53.040;8.850;2024-02-28T13:25:16;0.30;;;0.30;;
32333;SDS011;18810;53.040;8.850;2024-02-28T13:27:44;0.20;;;0.20;;
32333;SDS011;18810;53.040;8.850;2024-02-28T13:30:13;0.20;;;0.20;;
32333;SDS011;18810;53.040;8.850;2024-02-28T13:32:40;0.20;;;0.20;;
32333;SDS011;18810;53.040;8.850;2024-02-28T13:35:05;0.28;;;0.28;;
32333;SDS011;18810;53.040;8.850;2024-02-28T13:37:32;0.30;;;0.30;;
32333;SDS011;18810;53.040;8.850;2024-02-28T13:39:58;0.30;;;0.30;;
32333;SDS011;18810;53.040;8.850;2024-02-28T13:42:24;0.20;;;0.20;;
32333;SDS011;18810;53.040;8.850;2024-02-28T13:44:50;0.30;;;0.30;;
32333;SDS011;18810;53.040;8.850;2024-02-28T13:47:16;0.20;;;0.20;;
32333;SDS011;18810;53.040;8.850;2024-02-28T13:49:42;0.30;;;0.30;;
32333;SDS011;18810;53.040;8.850;2024-02-28T13:52:08;0.30;;;0.30;;
32333;SDS011;18810;53.040;8.850;2024-02-28T13:54:34;0.30;;;0.30;;
32333;SDS011;18810;53.040;8.850;2024-02-28T13:57:00;0.30;;;0.30;;
32333;SDS011;18810;53.040;8.850;2024-02-28T13:59:30;0.30;;;0.30;;
32333;SDS011;18810;53.040;8.850;2024-02-28T14:01:56;0.30;;;0.30;;
32333;SDS011;18810;53.040;8.850;2024-02-28T14:04:23;0.20;;;0.20;;
32333;SDS011;18810;53.040;8.850;2024-02-28T14:06:49;0.30;;;0.30;;
32333;SDS011;18810;53.040;8.850;2024-02-28T14:09:15;0.30;;;0.30;;
32333;SDS011;18810;53.040;8.850;2024-02-28T14:11:41;0.28;;;0.28;;
32333;SDS011;18810;53.040;8.850;2024-02-28T14:14:07;0.30;;;0.30;;
32333;SDS011;18810;53.040;8.850;2024-02-28T14:16:33;0.30;;;0.30;;
32333;SDS011;18810;53.040;8.850;2024-02-28T14:18:58;0.30;;;0.30;;
32333;SDS011;18810;53.040;8.850;2024-02-28T14:21:25;0.30;;;0.30;;
32333;SDS011;18810;53.040;8.850;2024-02-28T14:23:51;0.20;;;0.20;;
32333;SDS011;18810;53.040;8.850;2024-02-28T14:26:17;0.30;;;0.30;;
32333;SDS011;18810;53.040;8.850;2024-02-28T14:28:43;0.30;;;0.30;;
32333;SDS011;18810;53.040;8.850;2024-02-28T14:31:09;0.20;;;0.20;;
32333;SDS011;18810;53.040;8.850;2024-02-28T14:33:35;0.20;;;0.20;;
32333;SDS011;18810;53.040;8.850;2024-02-28T14:36:01;0.30;;;0.30;;
32333;SDS011;18810;53.040;8.850;2024-02-28T14:38:30;0.30;;;0.30;;
32333;SDS011;18810;53.040;8.850;2024-02-28T14:40:56;0.20;;;0.20;;
32333;SDS011;18810;53.040;8.850;2024-02-28T14:43:22;0.20;;;0.20;;
32333;SDS011;18810;53.040;8.850;2024-02-28T14:45:48;0.20;;;0.20;;
32333;SDS011;18810;53.040;8.850;2024-02-28T14:48:14;0.30;;;0.30;;